sensor_id;sensor_type;location;lat;lon;timestamp;temperature;humidity
76897;SHT30;65856;52.178;21.176;2022-12-20T00:01:11;-0.79;76.45
76897;SHT30;65856;52.178;21.176;2022-12-20T00:03:42;-0.81;76.53
76897;SHT30;65856;52.178;21.176;2022-12-20T00:06:11;-0.81;76.79
76897;SHT30;65856;52.178;21.176;2022-12-20T00:08:39;-0.82;76.94
76897;SHT30;65856;52.178;21.176;2022-12-20T00:11:08;-0.80;77.15
76897;SHT30;65856;52.178;21.176;2022-12-20T00:13:37;-0.75;77.33
76897;SHT30;65856;52.178;21.176;2022-12-20T00:16:06;-0.69;77.39
76897;SHT30;65856;52.178;21.176;2022-12-20T00:18:37;-0.62;77.32
76897;SHT30;65856;52.178;21.176;2022-12-20T00:21:08;-0.57;77.29
76897;SHT30;65856;52.178;21.176;2022-12-20T00:23:38;-0.54;77.36
76897;SHT30;65856;52.178;21.176;2022-12-20T00:26:07;-0.51;77.38
76897;SHT30;65856;52.178;21.176;2022-12-20T00:28:39;-0.51;77.60
76897;SHT30;65856;52.178;21.176;2022-12-20T00:31:09;-0.49;77.69
76897;SHT30;65856;52.178;21.176;2022-12-20T00:33:40;-0.49;77.81
76897;SHT30;65856;52.178;21.176;2022-12-20T00:36:11;-0.52;78.00
76897;SHT30;65856;52.178;21.176;2022-12-20T00:38:43;-0.51;78.10
76897;SHT30;65856;52.178;21.176;2022-12-20T00:41:13;-0.47;78.30
76897;SHT30;65856;52.178;21.176;2022-12-20T00:43:44;-0.44;78.35
76897;SHT30;65856;52.178;21.176;2022-12-20T00:46:13;-0.38;78.40
76897;SHT30;65856;52.178;21.176;2022-12-20T00:48:43;-0.35;78.49
76897;SHT30;65856;52.178;21.176;2022-12-20T00:51:12;-0.32;78.45
76897;SHT30;65856;52.178;21.176;2022-12-20T00:53:43;-0.33;78.48
76897;SHT30;65856;52.178;21.176;2022-12-20T00:56:12;-0.33;78.54
76897;SHT30;65856;52.178;21.176;2022-12-20T00:58:41;-0.34;78.60
76897;SHT30;65856;52.178;21.176;2022-12-20T01:01:14;-0.34;78.65
76897;SHT30;65856;52.178;21.176;2022-12-20T01:03:46;-0.36;78.72
76897;SHT30;65856;52.178;21.176;2022-12-20T01:06:15;-0.35;78.76
76897;SHT30;65856;52.178;21.176;2022-12-20T01:08:44;-0.30;78.83
76897;SHT30;65856;52.178;21.176;2022-12-20T01:11:13;-0.26;78.87
76897;SHT30;65856;52.178;21.176;2022-12-20T01:13:46;-0.21;78.81
76897;SHT30;65856;52.178;21.176;2022-12-20T01:16:18;-0.18;78.80
76897;SHT30;65856;52.178;21.176;2022-12-20T01:18:49;-0.16;78.92
76897;SHT30;65856;52.178;21.176;2022-12-20T01:21:19;-0.13;79.03
76897;SHT30;65856;52.178;21.176;2022-12-20T01:23:49;-0.13;79.09
76897;SHT30;65856;52.178;21.176;2022-12-20T01:26:19;-0.16;79.19
76897;SHT30;65856;52.178;21.176;2022-12-20T01:28:52;-0.16;79.34
76897;SHT30;65856;52.178;21.176;2022-12-20T01:31:22;-0.18;79.65
76897;SHT30;65856;52.178;21.176;2022-12-20T01:33:53;-0.18;79.95
76897;SHT30;65856;52.178;21.176;2022-12-20T01:36:22;-0.17;80.12
76897;SHT30;65856;52.178;21.176;2022-12-20T01:38:55;-0.13;80.28
76897;SHT30;65856;52.178;21.176;2022-12-20T01:41:24;-0.09;80.43
76897;SHT30;65856;52.178;21.176;2022-12-20T01:43:55;-0.06;80.60
76897;SHT30;65856;52.178;21.176;2022-12-20T01:46:26;-0.01;80.71
76897;SHT30;65856;52.178;21.176;2022-12-20T01:48:57;0.03;80.85
76897;SHT30;65856;52.178;21.176;2022-12-20T01:51:33;0.04;80.90
76897;SHT30;65856;52.178;21.176;2022-12-20T01:54:07;0.06;81.02
76897;SHT30;65856;52.178;21.176;2022-12-20T01:56:40;0.09;81.12
76897;SHT30;65856;52.178;21.176;2022-12-20T01:59:14;0.11;81.27
76897;SHT30;65856;52.178;21.176;2022-12-20T02:01:43;0.08;81.46
76897;SHT30;65856;52.178;21.176;2022-12-20T02:04:11;0.10;81.67
76897;SHT30;65856;52.178;21.176;2022-12-20T02:06:40;0.13;81.93
76897;SHT30;65856;52.178;21.176;2022-12-20T02:09:08;0.17;82.07
76897;SHT30;65856;52.178;21.176;2022-12-20T02:11:43;0.23;82.30
76897;SHT30;65856;52.178;21.176;2022-12-20T02:14:29;0.28;82.41
76897;SHT30;65856;52.178;21.176;2022-12-20T02:17:09;0.32;82.52
76897;SHT30;65856;52.178;21.176;2022-12-20T02:20:05;0.34;82.63
76897;SHT30;65856;52.178;21.176;2022-12-20T02:23:04;0.35;82.82
76897;SHT30;65856;52.178;21.176;2022-12-20T02:26:00;0.37;83.02
76897;SHT30;65856;52.178;21.176;2022-12-20T02:28:53;0.40;83.05
76897;SHT30;65856;52.178;21.176;2022-12-20T02:31:46;0.42;83.24
76897;SHT30;65856;52.178;21.176;2022-12-20T02:34:23;0.48;83.33
76897;SHT30;65856;52.178;21.176;2022-12-20T02:36:52;0.54;83.40
76897;SHT30;65856;52.178;21.176;2022-12-20T02:39:20;0.62;83.45
76897;SHT30;65856;52.178;21.176;2022-12-20T02:41:54;0.70;83.51
76897;SHT30;65856;52.178;21.176;2022-12-20T02:44:29;0.78;83.47
76897;SHT30;65856;52.178;21.176;2022-12-20T02:47:20;0.84;83.40
76897;SHT30;65856;52.178;21.176;2022-12-20T02:49:52;0.87;83.44
76897;SHT30;65856;52.178;21.176;2022-12-20T02:52:22;0.92;83.40
76897;SHT30;65856;52.178;21.176;2022-12-20T02:54:55;0.93;83.39
76897;SHT30;65856;52.178;21.176;2022-12-20T02:57:27;0.95;83.43
76897;SHT30;65856;52.178;21.176;2022-12-20T03:00:08;0.99;83.40
76897;SHT30;65856;52.178;21.176;2022-12-20T03:02:41;1.04;83.40
76897;SHT30;65856;52.178;21.176;2022-12-20T03:05:30;1.11;83.38
76897;SHT30;65856;52.178;21.176;2022-12-20T03:08:03;1.17;83.39
76897;SHT30;65856;52.178;21.176;2022-12-20T03:10:32;1.20;83.34
76897;SHT30;65856;52.178;21.176;2022-12-20T03:13:00;1.24;83.30
76897;SHT30;65856;52.178;21.176;2022-12-20T03:15:28;1.26;83.38
76897;SHT30;65856;52.178;21.176;2022-12-20T03:17:56;1.24;83.42
76897;SHT30;65856;52.178;21.176;2022-12-20T03:20:24;1.21;83.51
76897;SHT30;65856;52.178;21.176;2022-12-20T03:22:52;1.22;83.59
76897;SHT30;65856;52.178;21.176;2022-12-20T03:25:21;1.24;83.60
76897;SHT30;65856;52.178;21.176;2022-12-20T03:27:49;1.26;83.63
76897;SHT30;65856;52.178;21.176;2022-12-20T03:30:17;1.30;83.62
76897;SHT30;65856;52.178;21.176;2022-12-20T03:32:46;1.35;83.62
76897;SHT30;65856;52.178;21.176;2022-12-20T03:35:14;1.36;83.60
76897;SHT30;65856;52.178;21.176;2022-12-20T03:37:43;1.36;83.60
76897;SHT30;65856;52.178;21.176;2022-12-20T03:40:12;1.39;83.55
76897;SHT30;65856;52.178;21.176;2022-12-20T03:42:41;1.44;83.50
76897;SHT30;65856;52.178;21.176;2022-12-20T03:45:09;1.44;83.45
76897;SHT30;65856;52.178;21.176;2022-12-20T03:47:37;1.44;83.47
76897;SHT30;65856;52.178;21.176;2022-12-20T03:50:06;1.47;83.48
76897;SHT30;65856;52.178;21.176;2022-12-20T03:52:36;1.49;83.55
76897;SHT30;65856;52.178;21.176;2022-12-20T03:55:06;1.50;83.58
76897;SHT30;65856;52.178;21.176;2022-12-20T03:57:37;1.51;83.54
76897;SHT30;65856;52.178;21.176;2022-12-20T04:00:07;1.57;83.47
76897;SHT30;65856;52.178;21.176;2022-12-20T04:02:38;1.60;83.40
76897;SHT30;65856;52.178;21.176;2022-12-20T04:05:07;1.61;83.32
76897;SHT30;65856;52.178;21.176;2022-12-20T04:07:35;1.63;83.30
76897;SHT30;65856;52.178;21.176;2022-12-20T04:10:05;1.62;83.27
76897;SHT30;65856;52.178;21.176;2022-12-20T04:12:35;1.63;83.22
76897;SHT30;65856;52.178;21.176;2022-12-20T04:15:03;1.68;83.20
76897;SHT30;65856;52.178;21.176;2022-12-20T04:17:34;1.73;83.16
76897;SHT30;65856;52.178;21.176;2022-12-20T04:20:02;1.77;83.10
76897;SHT30;65856;52.178;21.176;2022-12-20T04:22:43;1.80;83.00
76897;SHT30;65856;52.178;21.176;2022-12-20T04:25:12;1.79;82.98
76897;SHT30;65856;52.178;21.176;2022-12-20T04:27:41;1.79;82.92
76897;SHT30;65856;52.178;21.176;2022-12-20T04:30:10;1.76;82.90
76897;SHT30;65856;52.178;21.176;2022-12-20T04:32:39;1.74;82.90
76897;SHT30;65856;52.178;21.176;2022-12-20T04:35:08;1.72;82.90
76897;SHT30;65856;52.178;21.176;2022-12-20T04:37:37;1.73;82.92
76897;SHT30;65856;52.178;21.176;2022-12-20T04:40:06;1.74;82.90
76897;SHT30;65856;52.178;21.176;2022-12-20T04:42:36;1.74;82.90
76897;SHT30;65856;52.178;21.176;2022-12-20T04:45:05;1.73;82.90
76897;SHT30;65856;52.178;21.176;2022-12-20T04:47:35;1.73;82.90
76897;SHT30;65856;52.178;21.176;2022-12-20T04:50:03;1.72;82.91
76897;SHT30;65856;52.178;21.176;2022-12-20T04:52:36;1.71;82.90
76897;SHT30;65856;52.178;21.176;2022-12-20T04:55:23;1.67;82.95
76897;SHT30;65856;52.178;21.176;2022-12-20T04:57:51;1.67;82.96
76897;SHT30;65856;52.178;21.176;2022-12-20T05:00:19;1.71;82.97
76897;SHT30;65856;52.178;21.176;2022-12-20T05:02:48;1.74;82.92
76897;SHT30;65856;52.178;21.176;2022-12-20T05:05:16;1.76;82.90
76897;SHT30;65856;52.178;21.176;2022-12-20T05:07:44;1.82;82.81
76897;SHT30;65856;52.178;21.176;2022-12-20T05:10:12;1.82;82.78
76897;SHT30;65856;52.178;21.176;2022-12-20T05:12:41;1.81;82.73
76897;SHT30;65856;52.178;21.176;2022-12-20T05:15:10;1.80;82.71
76897;SHT30;65856;52.178;21.176;2022-12-20T05:17:38;1.79;82.70
76897;SHT30;65856;52.178;21.176;2022-12-20T05:20:07;1.76;82.78
76897;SHT30;65856;52.178;21.176;2022-12-20T05:22:37;1.74;82.85
76897;SHT30;65856;52.178;21.176;2022-12-20T05:25:24;1.73;82.91
76897;SHT30;65856;52.178;21.176;2022-12-20T05:28:10;1.74;83.00
76897;SHT30;65856;52.178;21.176;2022-12-20T05:30:38;1.79;83.00
76897;SHT30;65856;52.178;21.176;2022-12-20T05:33:06;1.82;82.92
76897;SHT30;65856;52.178;21.176;2022-12-20T05:35:34;1.84;82.90
76897;SHT30;65856;52.178;21.176;2022-12-20T05:38:03;1.83;82.85
76897;SHT30;65856;52.178;21.176;2022-12-20T05:40:31;1.82;82.86
76897;SHT30;65856;52.178;21.176;2022-12-20T05:43:00;1.80;82.90
76897;SHT30;65856;52.178;21.176;2022-12-20T05:45:28;1.79;82.89
76897;SHT30;65856;52.178;21.176;2022-12-20T05:47:57;1.80;82.89
76897;SHT30;65856;52.178;21.176;2022-12-20T05:50:25;1.84;82.83
76897;SHT30;65856;52.178;21.176;2022-12-20T05:52:54;1.87;82.81
76897;SHT30;65856;52.178;21.176;2022-12-20T05:55:22;1.89;82.79
76897;SHT30;65856;52.178;21.176;2022-12-20T05:57:50;1.94;82.72
76897;SHT30;65856;52.178;21.176;2022-12-20T06:00:18;1.98;82.64
76897;SHT30;65856;52.178;21.176;2022-12-20T06:02:47;2.01;82.57
76897;SHT30;65856;52.178;21.176;2022-12-20T06:05:15;2.01;82.50
76897;SHT30;65856;52.178;21.176;2022-12-20T06:07:44;1.98;82.48
76897;SHT30;65856;52.178;21.176;2022-12-20T06:10:13;1.97;82.48
76897;SHT30;65856;52.178;21.176;2022-12-20T06:12:42;1.98;82.42
76897;SHT30;65856;52.178;21.176;2022-12-20T06:15:10;2.01;82.40
76897;SHT30;65856;52.178;21.176;2022-12-20T06:17:40;2.06;82.32
76897;SHT30;65856;52.178;21.176;2022-12-20T06:20:08;2.11;82.23
76897;SHT30;65856;52.178;21.176;2022-12-20T06:22:37;2.11;82.20
76897;SHT30;65856;52.178;21.176;2022-12-20T06:25:06;2.13;82.16
76897;SHT30;65856;52.178;21.176;2022-12-20T06:27:37;2.12;82.10
76897;SHT30;65856;52.178;21.176;2022-12-20T06:30:06;2.10;82.09
76897;SHT30;65856;52.178;21.176;2022-12-20T06:32:36;2.09;82.10
76897;SHT30;65856;52.178;21.176;2022-12-20T06:35:05;2.10;82.10
76897;SHT30;65856;52.178;21.176;2022-12-20T06:37:34;2.13;82.05
76897;SHT30;65856;52.178;21.176;2022-12-20T06:40:06;2.16;82.00
76897;SHT30;65856;52.178;21.176;2022-12-20T06:42:37;2.23;81.93
76897;SHT30;65856;52.178;21.176;2022-12-20T06:45:07;2.28;81.82
76897;SHT30;65856;52.178;21.176;2022-12-20T06:47:36;2.31;81.69
76897;SHT30;65856;52.178;21.176;2022-12-20T06:50:07;2.31;81.56
76897;SHT30;65856;52.178;21.176;2022-12-20T06:52:36;2.30;81.51
76897;SHT30;65856;52.178;21.176;2022-12-20T06:55:04;2.28;81.44
76897;SHT30;65856;52.178;21.176;2022-12-20T06:57:34;2.26;81.40
76897;SHT30;65856;52.178;21.176;2022-12-20T07:00:02;2.25;81.40
76897;SHT30;65856;52.178;21.176;2022-12-20T07:02:35;2.25;81.40
76897;SHT30;65856;52.178;21.176;2022-12-20T07:05:03;2.30;81.37
76897;SHT30;65856;52.178;21.176;2022-12-20T07:07:33;2.34;81.30
76897;SHT30;65856;52.178;21.176;2022-12-20T07:10:01;2.36;81.20
76897;SHT30;65856;52.178;21.176;2022-12-20T07:12:31;2.45;81.02
76897;SHT30;65856;52.178;21.176;2022-12-20T07:14:59;2.44;80.90
76897;SHT30;65856;52.178;21.176;2022-12-20T07:17:28;2.45;80.90
76897;SHT30;65856;52.178;21.176;2022-12-20T07:19:56;2.46;80.89
76897;SHT30;65856;52.178;21.176;2022-12-20T07:22:24;2.44;80.80
76897;SHT30;65856;52.178;21.176;2022-12-20T07:24:52;2.46;80.79
76897;SHT30;65856;52.178;21.176;2022-12-20T07:27:20;2.51;80.79
76897;SHT30;65856;52.178;21.176;2022-12-20T07:29:48;2.58;80.70
76897;SHT30;65856;52.178;21.176;2022-12-20T07:32:17;2.64;80.58
76897;SHT30;65856;52.178;21.176;2022-12-20T07:34:45;2.67;80.47
76897;SHT30;65856;52.178;21.176;2022-12-20T07:37:14;2.68;80.39
76897;SHT30;65856;52.178;21.176;2022-12-20T07:39:42;2.68;80.34
76897;SHT30;65856;52.178;21.176;2022-12-20T07:42:10;2.67;80.28
76897;SHT30;65856;52.178;21.176;2022-12-20T07:44:38;2.65;80.20
76897;SHT30;65856;52.178;21.176;2022-12-20T07:47:06;2.64;80.21
76897;SHT30;65856;52.178;21.176;2022-12-20T07:49:35;2.62;80.20
76897;SHT30;65856;52.178;21.176;2022-12-20T07:52:03;2.65;80.20
76897;SHT30;65856;52.178;21.176;2022-12-20T07:54:36;2.80;80.25
76897;SHT30;65856;52.178;21.176;2022-12-20T07:57:11;2.92;79.89
76897;SHT30;65856;52.178;21.176;2022-12-20T07:59:45;2.92;79.68
76897;SHT30;65856;52.178;21.176;2022-12-20T08:02:20;2.89;79.60
76897;SHT30;65856;52.178;21.176;2022-12-20T08:04:53;2.86;79.52
76897;SHT30;65856;52.178;21.176;2022-12-20T08:07:22;2.84;79.50
76897;SHT30;65856;52.178;21.176;2022-12-20T08:09:52;2.83;79.55
76897;SHT30;65856;52.178;21.176;2022-12-20T08:12:21;2.82;79.51
76897;SHT30;65856;52.178;21.176;2022-12-20T08:14:51;2.79;79.51
76897;SHT30;65856;52.178;21.176;2022-12-20T08:17:20;2.79;79.53
76897;SHT30;65856;52.178;21.176;2022-12-20T08:19:49;2.82;79.46
76897;SHT30;65856;52.178;21.176;2022-12-20T08:22:17;2.87;79.40
76897;SHT30;65856;52.178;21.176;2022-12-20T08:24:45;2.95;79.35
76897;SHT30;65856;52.178;21.176;2022-12-20T08:27:13;3.01;79.21
76897;SHT30;65856;52.178;21.176;2022-12-20T08:29:42;3.04;79.08
76897;SHT30;65856;52.178;21.176;2022-12-20T08:32:10;3.07;78.95
76897;SHT30;65856;52.178;21.176;2022-12-20T08:34:38;3.04;78.80
76897;SHT30;65856;52.178;21.176;2022-12-20T08:37:07;3.03;78.82
76897;SHT30;65856;52.178;21.176;2022-12-20T08:39:35;3.00;78.80
76897;SHT30;65856;52.178;21.176;2022-12-20T08:42:04;2.96;78.80
76897;SHT30;65856;52.178;21.176;2022-12-20T08:44:32;2.93;78.81
76897;SHT30;65856;52.178;21.176;2022-12-20T08:47:00;2.93;78.74
76897;SHT30;65856;52.178;21.176;2022-12-20T08:49:29;2.95;78.80
76897;SHT30;65856;52.178;21.176;2022-12-20T08:51:58;2.99;78.75
76897;SHT30;65856;52.178;21.176;2022-12-20T08:54:26;3.04;78.55
76897;SHT30;65856;52.178;21.176;2022-12-20T08:56:54;3.09;78.47
76897;SHT30;65856;52.178;21.176;2022-12-20T08:59:22;3.14;78.31
76897;SHT30;65856;52.178;21.176;2022-12-20T09:01:51;3.29;78.18
76897;SHT30;65856;52.178;21.176;2022-12-20T09:04:19;3.38;77.93
76897;SHT30;65856;52.178;21.176;2022-12-20T09:06:47;3.43;77.77
76897;SHT30;65856;52.178;21.176;2022-12-20T09:09:16;3.44;77.54
76897;SHT30;65856;52.178;21.176;2022-12-20T09:11:44;3.42;77.32
76897;SHT30;65856;52.178;21.176;2022-12-20T09:14:12;3.43;77.21
76897;SHT30;65856;52.178;21.176;2022-12-20T09:16:40;3.43;77.22
76897;SHT30;65856;52.178;21.176;2022-12-20T09:19:10;3.47;77.22
76897;SHT30;65856;52.178;21.176;2022-12-20T09:21:41;3.51;76.99
76897;SHT30;65856;52.178;21.176;2022-12-20T09:24:09;3.56;76.81
76897;SHT30;65856;52.178;21.176;2022-12-20T09:26:38;3.61;76.47
76897;SHT30;65856;52.178;21.176;2022-12-20T09:29:06;3.65;76.37
76897;SHT30;65856;52.178;21.176;2022-12-20T09:31:34;3.70;76.28
76897;SHT30;65856;52.178;21.176;2022-12-20T09:34:02;3.76;76.42
76897;SHT30;65856;52.178;21.176;2022-12-20T09:36:30;3.81;76.36
76897;SHT30;65856;52.178;21.176;2022-12-20T09:38:58;3.84;76.09
76897;SHT30;65856;52.178;21.176;2022-12-20T09:41:28;3.90;75.93
76897;SHT30;65856;52.178;21.176;2022-12-20T09:44:04;3.96;75.89
76897;SHT30;65856;52.178;21.176;2022-12-20T09:46:40;3.97;75.63
76897;SHT30;65856;52.178;21.176;2022-12-20T09:49:11;4.03;75.54
76897;SHT30;65856;52.178;21.176;2022-12-20T09:51:53;4.12;75.24
76897;SHT30;65856;52.178;21.176;2022-12-20T09:54:49;4.25;74.97
76897;SHT30;65856;52.178;21.176;2022-12-20T09:57:33;4.30;74.39
76897;SHT30;65856;52.178;21.176;2022-12-20T10:00:18;4.34;74.29
76897;SHT30;65856;52.178;21.176;2022-12-20T10:02:47;4.42;74.01
76897;SHT30;65856;52.178;21.176;2022-12-20T10:05:16;4.49;73.72
76897;SHT30;65856;52.178;21.176;2022-12-20T10:07:58;4.67;73.58
76897;SHT30;65856;52.178;21.176;2022-12-20T10:10:45;4.86;73.17
76897;SHT30;65856;52.178;21.176;2022-12-20T10:13:28;4.96;72.97
76897;SHT30;65856;52.178;21.176;2022-12-20T10:16:12;4.94;72.30
76897;SHT30;65856;52.178;21.176;2022-12-20T10:19:00;4.87;72.18
76897;SHT30;65856;52.178;21.176;2022-12-20T10:22:01;4.88;72.21
76897;SHT30;65856;52.178;21.176;2022-12-20T10:24:37;4.88;72.15
76897;SHT30;65856;52.178;21.176;2022-12-20T10:27:19;4.91;72.12
76897;SHT30;65856;52.178;21.176;2022-12-20T10:29:48;4.97;71.86
76897;SHT30;65856;52.178;21.176;2022-12-20T10:32:18;5.15;71.84
76897;SHT30;65856;52.178;21.176;2022-12-20T10:34:51;5.33;71.49
76897;SHT30;65856;52.178;21.176;2022-12-20T10:37:26;5.45;70.81
76897;SHT30;65856;52.178;21.176;2022-12-20T10:39:54;5.53;70.60
76897;SHT30;65856;52.178;21.176;2022-12-20T10:42:23;5.60;70.13
76897;SHT30;65856;52.178;21.176;2022-12-20T10:45:04;5.56;69.80
76897;SHT30;65856;52.178;21.176;2022-12-20T10:47:57;5.47;69.57
76897;SHT30;65856;52.178;21.176;2022-12-20T10:50:27;5.41;69.59
76897;SHT30;65856;52.178;21.176;2022-12-20T10:53:03;5.37;69.64
76897;SHT30;65856;52.178;21.176;2022-12-20T10:55:46;5.36;69.74
76897;SHT30;65856;52.178;21.176;2022-12-20T10:58:16;5.37;69.86
76897;SHT30;65856;52.178;21.176;2022-12-20T11:01:04;5.39;69.78
76897;SHT30;65856;52.178;21.176;2022-12-20T11:03:50;5.37;69.61
76897;SHT30;65856;52.178;21.176;2022-12-20T11:06:23;5.37;69.61
76897;SHT30;65856;52.178;21.176;2022-12-20T11:09:04;5.36;69.59
76897;SHT30;65856;52.178;21.176;2022-12-20T11:11:57;5.36;69.40
76897;SHT30;65856;52.178;21.176;2022-12-20T11:14:29;5.34;69.18
76897;SHT30;65856;52.178;21.176;2022-12-20T11:17:00;5.34;69.21
76897;SHT30;65856;52.178;21.176;2022-12-20T11:19:47;5.31;68.96
76897;SHT30;65856;52.178;21.176;2022-12-20T11:22:33;5.24;68.87
76897;SHT30;65856;52.178;21.176;2022-12-20T11:25:22;5.18;68.92
76897;SHT30;65856;52.178;21.176;2022-12-20T11:28:13;5.11;68.89
76897;SHT30;65856;52.178;21.176;2022-12-20T11:31:00;5.06;68.90
76897;SHT30;65856;52.178;21.176;2022-12-20T11:33:44;4.99;68.94
76897;SHT30;65856;52.178;21.176;2022-12-20T11:36:30;4.97;69.25
76897;SHT30;65856;52.178;21.176;2022-12-20T11:39:20;4.87;69.26
76897;SHT30;65856;52.178;21.176;2022-12-20T11:42:03;4.80;69.53
76897;SHT30;65856;52.178;21.176;2022-12-20T11:44:45;4.73;69.66
76897;SHT30;65856;52.178;21.176;2022-12-20T11:47:30;4.69;69.76
76897;SHT30;65856;52.178;21.176;2022-12-20T11:50:39;4.64;69.91
76897;SHT30;65856;52.178;21.176;2022-12-20T11:53:20;4.57;70.04
76897;SHT30;65856;52.178;21.176;2022-12-20T11:55:58;4.54;70.15
76897;SHT30;65856;52.178;21.176;2022-12-20T11:58:32;4.49;70.22
76897;SHT30;65856;52.178;21.176;2022-12-20T12:01:16;4.47;70.32
76897;SHT30;65856;52.178;21.176;2022-12-20T12:03:52;4.44;70.51
76897;SHT30;65856;52.178;21.176;2022-12-20T12:06:35;4.47;70.54
76897;SHT30;65856;52.178;21.176;2022-12-20T12:09:13;4.50;70.50
76897;SHT30;65856;52.178;21.176;2022-12-20T12:11:51;4.58;70.40
76897;SHT30;65856;52.178;21.176;2022-12-20T12:14:29;4.65;70.35
76897;SHT30;65856;52.178;21.176;2022-12-20T12:17:17;4.72;70.25
76897;SHT30;65856;52.178;21.176;2022-12-20T12:19:52;4.80;70.13
76897;SHT30;65856;52.178;21.176;2022-12-20T12:22:33;4.83;70.02
76897;SHT30;65856;52.178;21.176;2022-12-20T12:25:07;4.89;70.01
76897;SHT30;65856;52.178;21.176;2022-12-20T12:27:42;4.94;70.00
76897;SHT30;65856;52.178;21.176;2022-12-20T12:30:12;4.98;69.85
76897;SHT30;65856;52.178;21.176;2022-12-20T12:32:43;5.00;69.80
76897;SHT30;65856;52.178;21.176;2022-12-20T12:38:24;4.98;69.51
76897;SHT30;65856;52.178;21.176;2022-12-20T12:47:16;4.90;69.25
76897;SHT30;65856;52.178;21.176;2022-12-20T12:49:50;4.87;69.18
76897;SHT30;65856;52.178;21.176;2022-12-20T12:52:28;4.90;69.36
76897;SHT30;65856;52.178;21.176;2022-12-20T13:01:08;5.01;69.17
76897;SHT30;65856;52.178;21.176;2022-12-20T13:03:42;5.01;68.93
76897;SHT30;65856;52.178;21.176;2022-12-20T13:09:53;4.82;69.12
76897;SHT30;65856;52.178;21.176;2022-12-20T13:18:19;4.66;69.37
76897;SHT30;65856;52.178;21.176;2022-12-20T13:27:15;4.46;69.82
76897;SHT30;65856;52.178;21.176;2022-12-20T13:32:56;4.38;70.24
76897;SHT30;65856;52.178;21.176;2022-12-20T13:36:28;4.41;70.39
76897;SHT30;65856;52.178;21.176;2022-12-20T13:39:11;4.45;70.45
76897;SHT30;65856;52.178;21.176;2022-12-20T13:42:13;4.49;70.37
76897;SHT30;65856;52.178;21.176;2022-12-20T13:44:55;4.46;70.39
76897;SHT30;65856;52.178;21.176;2022-12-20T13:47:33;4.43;70.46
76897;SHT30;65856;52.178;21.176;2022-12-20T13:50:25;4.40;70.55
76897;SHT30;65856;52.178;21.176;2022-12-20T13:53:00;4.39;70.63
76897;SHT30;65856;52.178;21.176;2022-12-20T13:55:36;4.35;70.71
76897;SHT30;65856;52.178;21.176;2022-12-20T13:58:10;4.28;70.79
76897;SHT30;65856;52.178;21.176;2022-12-20T14:00:43;4.21;70.94
76897;SHT30;65856;52.178;21.176;2022-12-20T14:03:15;4.16;71.10
76897;SHT30;65856;52.178;21.176;2022-12-20T14:05:48;4.12;71.21
76897;SHT30;65856;52.178;21.176;2022-12-20T14:08:24;4.05;71.34
76897;SHT30;65856;52.178;21.176;2022-12-20T14:11:06;4.02;71.53
76897;SHT30;65856;52.178;21.176;2022-12-20T14:13:37;4.01;71.59
76897;SHT30;65856;52.178;21.176;2022-12-20T14:16:06;4.03;71.65
76897;SHT30;65856;52.178;21.176;2022-12-20T14:18:40;4.04;71.70
76897;SHT30;65856;52.178;21.176;2022-12-20T14:21:14;4.06;71.70
76897;SHT30;65856;52.178;21.176;2022-12-20T14:23:44;4.06;71.70
76897;SHT30;65856;52.178;21.176;2022-12-20T14:26:17;4.03;71.69
76897;SHT30;65856;52.178;21.176;2022-12-20T14:28:52;4.02;71.72
76897;SHT30;65856;52.178;21.176;2022-12-20T14:31:23;4.01;71.79
76897;SHT30;65856;52.178;21.176;2022-12-20T14:34:04;4.00;71.89
76897;SHT30;65856;52.178;21.176;2022-12-20T14:36:41;3.94;71.95
76897;SHT30;65856;52.178;21.176;2022-12-20T14:39:21;3.89;72.08
76897;SHT30;65856;52.178;21.176;2022-12-20T14:41:56;3.85;72.19
76897;SHT30;65856;52.178;21.176;2022-12-20T14:44:27;3.81;72.26
76897;SHT30;65856;52.178;21.176;2022-12-20T14:46:57;3.79;72.35
76897;SHT30;65856;52.178;21.176;2022-12-20T14:49:27;3.79;72.46
76897;SHT30;65856;52.178;21.176;2022-12-20T14:52:05;3.80;72.50
76897;SHT30;65856;52.178;21.176;2022-12-20T14:54:44;3.84;72.46
76897;SHT30;65856;52.178;21.176;2022-12-20T14:57:23;3.88;72.46
76897;SHT30;65856;52.178;21.176;2022-12-20T14:59:58;3.88;72.40
76897;SHT30;65856;52.178;21.176;2022-12-20T15:02:39;3.87;72.44
76897;SHT30;65856;52.178;21.176;2022-12-20T15:08:16;3.84;72.50
76897;SHT30;65856;52.178;21.176;2022-12-20T15:10:48;3.81;72.50
76897;SHT30;65856;52.178;21.176;2022-12-20T15:13:20;3.75;72.50
76897;SHT30;65856;52.178;21.176;2022-12-20T15:15:52;3.69;72.54
76897;SHT30;65856;52.178;21.176;2022-12-20T15:18:20;3.64;72.73
76897;SHT30;65856;52.178;21.176;2022-12-20T15:20:52;3.60;72.80
76897;SHT30;65856;52.178;21.176;2022-12-20T15:23:29;3.58;72.89
76897;SHT30;65856;52.178;21.176;2022-12-20T15:25:59;3.60;72.90
76897;SHT30;65856;52.178;21.176;2022-12-20T15:28:27;3.62;72.89
76897;SHT30;65856;52.178;21.176;2022-12-20T15:30:55;3.64;72.90
76897;SHT30;65856;52.178;21.176;2022-12-20T15:33:24;3.66;72.89
76897;SHT30;65856;52.178;21.176;2022-12-20T15:35:56;3.66;72.90
76897;SHT30;65856;52.178;21.176;2022-12-20T15:38:25;3.66;72.90
76897;SHT30;65856;52.178;21.176;2022-12-20T15:40:54;3.65;72.91
76897;SHT30;65856;52.178;21.176;2022-12-20T15:43:28;3.63;72.94
76897;SHT30;65856;52.178;21.176;2022-12-20T15:46:03;3.60;72.90
76897;SHT30;65856;52.178;21.176;2022-12-20T15:48:32;3.55;73.02
76897;SHT30;65856;52.178;21.176;2022-12-20T15:51:00;3.51;73.06
76897;SHT30;65856;52.178;21.176;2022-12-20T15:53:37;3.47;73.17
76897;SHT30;65856;52.178;21.176;2022-12-20T15:56:07;3.44;73.18
76897;SHT30;65856;52.178;21.176;2022-12-20T15:58:42;3.42;73.26
76897;SHT30;65856;52.178;21.176;2022-12-20T16:01:11;3.43;73.31
76897;SHT30;65856;52.178;21.176;2022-12-20T16:03:45;3.46;73.32
76897;SHT30;65856;52.178;21.176;2022-12-20T16:06:13;3.51;73.27
76897;SHT30;65856;52.178;21.176;2022-12-20T16:08:42;3.51;73.20
76897;SHT30;65856;52.178;21.176;2022-12-20T16:11:15;3.53;73.20
76897;SHT30;65856;52.178;21.176;2022-12-20T16:13:48;3.53;73.22
76897;SHT30;65856;52.178;21.176;2022-12-20T16:16:17;3.52;73.30
76897;SHT30;65856;52.178;21.176;2022-12-20T16:18:50;3.51;73.33
76897;SHT30;65856;52.178;21.176;2022-12-20T16:21:19;3.46;73.30
76897;SHT30;65856;52.178;21.176;2022-12-20T16:23:50;3.43;73.38
76897;SHT30;65856;52.178;21.176;2022-12-20T16:26:19;3.39;73.49
76897;SHT30;65856;52.178;21.176;2022-12-20T16:28:50;3.35;73.61
76897;SHT30;65856;52.178;21.176;2022-12-20T16:31:21;3.31;73.73
76897;SHT30;65856;52.178;21.176;2022-12-20T16:33:54;3.31;73.81
76897;SHT30;65856;52.178;21.176;2022-12-20T16:36:24;3.33;73.89
76897;SHT30;65856;52.178;21.176;2022-12-20T16:38:52;3.36;73.90
76897;SHT30;65856;52.178;21.176;2022-12-20T16:41:21;3.38;73.96
76897;SHT30;65856;52.178;21.176;2022-12-20T16:43:52;3.40;73.87